Time;durP1;ratioP1;P1;durP2;ratioP2;P2;SDS_P1;SDS_P2;PMS_P1;PMS_P2;Temp;Humidity;BMP_temperature;BMP_pressure;BME280_temperature;BME280_humidity;BME280_pressure;Samples;Min_cycle;Max_cycle;Signal;HPM_P1;HPM_P2
2024/01/26 00:00:18;;;;;;;5.05;2.80;;;18.80;53.40;;;;;;5086085;28;45211;-63
2024/01/26 00:02:45;;;;;;;3.17;2.53;;;18.80;53.40;;;;;;5086216;28;45205;-63
2024/01/26 00:05:12;;;;;;;4.28;2.60;;;18.80;53.40;;;;;;5086254;28;45334;-62
2024/01/26 00:07:39;;;;;;;2.80;2.30;;;18.80;53.50;;;;;;5085909;28;45313;-62
2024/01/26 00:10:07;;;;;;;3.83;2.92;;;18.80;53.50;;;;;;5085970;28;45310;-62
2024/01/26 00:12:36;;;;;;;3.47;2.17;;;18.80;53.50;;;;;;5086031;28;45190;-63
2024/01/26 00:15:03;;;;;;;5.40;2.42;;;18.80;53.50;;;;;;5085950;28;45323;-63
2024/01/26 00:17:30;;;;;;;3.33;2.45;;;18.70;53.40;;;;;;5085787;28;45728;-63
2024/01/26 00:19:56;;;;;;;3.47;2.20;;;18.70;53.40;;;;;;5085973;28;45200;-62
2024/01/26 00:22:23;;;;;;;3.75;2.08;;;18.70;53.40;;;;;;5085971;28;45193;-63
2024/01/26 00:24:51;;;;;;;3.25;2.15;;;18.70;53.50;;;;;;5086029;28;45244;-61
2024/01/26 00:27:18;;;;;;;3.85;2.05;;;18.60;53.40;;;;;;5085889;28;47626;-61
2024/01/26 00:29:45;;;;;;;3.08;2.33;;;18.60;53.40;;;;;;5085529;28;45445;-61
2024/01/26 00:32:12;;;;;;;3.55;2.22;;;18.60;53.50;;;;;;5085787;28;45250;-61
2024/01/26 00:34:39;;;;;;;3.22;2.28;;;18.60;53.50;;;;;;5085789;28;45419;-61
2024/01/26 00:37:06;;;;;;;3.40;2.35;;;18.60;53.50;;;;;;5085576;28;46403;-61
2024/01/26 00:39:33;;;;;;;3.72;1.95;;;18.50;53.50;;;;;;5085657;28;45262;-61
2024/01/26 00:42:01;;;;;;;2.60;2.00;;;18.50;53.50;;;;;;5085572;28;45338;-61
2024/01/26 00:44:28;;;;;;;2.90;2.03;;;18.50;53.40;;;;;;5085904;28;45450;-61
2024/01/26 00:46:54;;;;;;;3.78;2.38;;;18.50;53.50;;;;;;5085508;28;46494;-61
2024/01/26 00:49:21;;;;;;;2.75;2.10;;;18.50;53.50;;;;;;5085530;27;45158;-61
2024/01/26 00:51:48;;;;;;;2.40;1.90;;;18.40;53.40;;;;;;5088566;28;45224;-61
2024/01/26 00:54:15;;;;;;;2.05;1.70;;;18.40;53.50;;;;;;5089467;28;45499;-61
2024/01/26 00:56:42;;;;;;;3.80;2.17;;;18.40;53.50;;;;;;5088964;28;46308;-61
2024/01/26 00:59:10;;;;;;;2.42;1.80;;;18.40;53.50;;;;;;5088890;28;45348;-60
2024/01/26 01:01:37;;;;;;;2.88;1.98;;;18.40;53.50;;;;;;5089107;28;45398;-61
2024/01/26 01:04:05;;;;;;;2.70;2.05;;;18.40;53.50;;;;;;5089253;28;45264;-61
2024/01/26 01:06:32;;;;;;;3.08;1.88;;;18.30;53.50;;;;;;5088975;28;45288;-61
2024/01/26 01:08:59;;;;;;;3.47;2.20;;;18.30;53.50;;;;;;5088827;28;45273;-61
2024/01/26 01:11:26;;;;;;;2.75;2.00;;;18.30;53.50;;;;;;5089363;28;45300;-62
2024/01/26 01:13:53;;;;;;;3.05;1.95;;;18.30;53.50;;;;;;5088882;28;45505;-62
2024/01/26 01:16:22;;;;;;;2.53;2.33;;;18.30;53.50;;;;;;5088704;28;47313;-61
2024/01/26 01:18:49;;;;;;;2.22;1.80;;;18.30;53.50;;;;;;5088460;28;45196;-61
2024/01/26 01:21:16;;;;;;;2.72;1.73;;;18.20;54.10;;;;;;5089020;28;45223;-61
2024/01/26 01:23:43;;;;;;;2.92;1.90;;;18.20;53.50;;;;;;5088969;28;45304;-61
2024/01/26 01:26:09;;;;;;;1.85;1.75;;;18.20;53.50;;;;;;5088548;28;46289;-62
2024/01/26 01:28:36;;;;;;;1.80;1.65;;;18.20;53.50;;;;;;5088462;28;45299;-60
2024/01/26 01:31:04;;;;;;;1.98;1.75;;;18.20;53.50;;;;;;5088426;28;45411;-61
2024/01/26 01:33:32;;;;;;;1.58;1.48;;;18.20;53.50;;;;;;5088730;28;45198;-61
2024/01/26 01:36:00;;;;;;;2.80;1.70;;;18.20;53.50;;;;;;5088249;28;45365;-63
2024/01/26 01:38:27;;;;;;;2.38;2.05;;;18.20;53.50;;;;;;5088368;28;45244;-62
2024/01/26 01:40:53;;;;;;;3.58;1.85;;;18.10;53.50;;;;;;5088151;28;45186;-61
2024/01/26 01:43:20;;;;;;;1.90;1.73;;;18.10;53.50;;;;;;5088771;28;45123;-62
2024/01/26 01:45:47;;;;;;;1.63;1.52;;;18.10;53.50;;;;;;5088292;28;46392;-62
2024/01/26 01:48:14;;;;;;;2.47;1.90;;;18.10;53.50;;;;;;5088528;28;45325;-60
2024/01/26 01:50:42;;;;;;;2.28;1.58;;;18.10;53.50;;;;;;5088351;28;45432;-60
2024/01/26 01:53:09;;;;;;;3.30;1.80;;;18.10;53.50;;;;;;5088336;28;45137;-61
2024/01/26 01:55:36;;;;;;;1.88;1.55;;;18.00;53.50;;;;;;5087786;28;46719;-63
2024/01/26 01:58:03;;;;;;;2.85;1.40;;;18.00;53.50;;;;;;5088087;28;45317;-61
2024/01/26 02:00:32;;;;;;;2.88;1.60;;;18.00;53.50;;;;;;5088256;28;45303;-60
2024/01/26 02:02:59;;;;;;;2.40;1.90;;;18.00;53.50;;;;;;5088282;28;45171;-60
2024/01/26 02:05:26;;;;;;;2.53;1.63;;;18.00;53.50;;;;;;5087862;28;46359;-61
2024/01/26 02:07:54;;;;;;;2.60;1.80;;;18.00;53.50;;;;;;5087896;28;45446;-61
2024/01/26 02:10:21;;;;;;;1.38;1.27;;;18.00;53.50;;;;;;5088098;28;45562;-61
2024/01/26 02:12:48;;;;;;;2.03;1.70;;;18.00;53.60;;;;;;5088290;28;45372;-61
2024/01/26 02:15:15;;;;;;;1.85;1.50;;;18.00;53.60;;;;;;5087647;28;46388;-62
2024/01/26 02:17:41;;;;;;;2.22;1.55;;;18.00;53.60;;;;;;5087655;28;45253;-61
2024/01/26 02:20:09;;;;;;;2.05;1.85;;;17.90;53.50;;;;;;5087946;28;45336;-61
2024/01/26 02:22:37;;;;;;;1.80;1.60;;;17.90;53.50;;;;;;5087989;28;45363;-61
2024/01/26 02:25:05;;;;;;;2.13;1.50;;;17.90;53.50;;;;;;5087625;28;46619;-61
2024/01/26 02:27:32;;;;;;;2.40;1.63;;;17.90;53.50;;;;;;5087552;28;45193;-61
2024/01/26 02:29:59;;;;;;;1.60;1.45;;;17.90;53.50;;;;;;5087563;28;45398;-61
2024/01/26 02:32:26;;;;;;;1.60;1.25;;;17.90;53.60;;;;;;5087854;28;45323;-63
2024/01/26 02:34:53;;;;;;;1.55;1.42;;;17.90;53.60;;;;;;5087169;28;45459;-63
2024/01/26 02:37:19;;;;;;;2.90;1.65;;;17.80;53.50;;;;;;5087781;28;45498;-62
2024/01/26 02:39:46;;;;;;;1.83;1.60;;;17.80;53.50;;;;;;5087569;28;45311;-61
2024/01/26 02:42:14;;;;;;;1.88;1.40;;;17.80;53.50;;;;;;5087432;28;45238;-62
2024/01/26 02:44:41;;;;;;;1.38;1.27;;;17.80;53.60;;;;;;5087326;28;47387;-62
2024/01/26 02:47:08;;;;;;;2.50;1.60;;;17.80;53.60;;;;;;5087284;28;45232;-63
2024/01/26 02:49:35;;;;;;;2.55;1.45;;;17.80;53.50;;;;;;5087357;28;45267;-63
2024/01/26 02:52:02;;;;;;;2.00;1.50;;;17.80;53.60;;;;;;5087626;28;45279;-60
2024/01/26 02:54:29;;;;;;;1.60;1.50;;;17.80;53.60;;;;;;5086792;28;47875;-61
2024/01/26 02:56:56;;;;;;;1.40;1.30;;;17.70;53.60;;;;;;5087302;28;45328;-63
2024/01/26 02:59:25;;;;;;;1.60;1.50;;;17.70;53.60;;;;;;5087307;28;45308;-62
2024/01/26 03:01:52;;;;;;;1.35;1.25;;;17.70;53.60;;;;;;5087441;28;45238;-61
2024/01/26 03:04:19;;;;;;;1.65;1.30;;;17.70;53.70;;;;;;5086881;28;45281;-61
2024/01/26 03:06:46;;;;;;;1.48;1.10;;;17.70;53.60;;;;;;5087184;28;45356;-61
2024/01/26 03:09:13;;;;;;;1.55;1.40;;;17.70;54.20;;;;;;5087244;28;45257;-61
2024/01/26 03:11:41;;;;;;;1.92;1.42;;;17.70;53.60;;;;;;5087264;28;45358;-61
2024/01/26 03:14:07;;;;;;;1.42;1.20;;;17.70;53.60;;;;;;5085866;27;46415;-62
2024/01/26 03:16:35;;;;;;;1.65;1.40;;;17.70;53.60;;;;;;5086796;28;45458;-61
2024/01/26 03:19:02;;;;;;;1.73;1.30;;;17.60;53.50;;;;;;5086993;28;45351;-61
2024/01/26 03:21:29;;;;;;;1.38;1.20;;;17.60;53.60;;;;;;5087374;28;45448;-62
2024/01/26 03:23:56;;;;;;;1.20;1.10;;;17.60;53.50;;;;;;5086626;28;46325;-61
2024/01/26 03:26:23;;;;;;;1.70;1.30;;;17.60;53.50;;;;;;5086744;28;45276;-61
2024/01/26 03:28:50;;;;;;;1.55;1.30;;;17.60;53.50;;;;;;5086787;28;45389;-62
2024/01/26 03:31:17;;;;;;;1.95;1.33;;;17.60;53.50;;;;;;5087035;28;45312;-60
2024/01/26 03:33:45;;;;;;;1.20;1.10;;;17.60;53.40;;;;;;5086525;28;45305;-61
2024/01/26 03:36:13;;;;;;;1.67;1.20;;;17.60;53.50;;;;;;5086499;28;45292;-61
2024/01/26 03:38:40;;;;;;;2.67;1.05;;;17.60;53.50;;;;;;5086804;28;45276;-61
2024/01/26 03:41:07;;;;;;;1.33;1.23;;;17.60;53.40;;;;;;5088529;27;45222;-61
2024/01/26 03:43:33;;;;;;;1.58;1.17;;;17.60;53.50;;;;;;5106809;27;46773;-60
2024/01/26 03:46:01;;;;;;;2.70;1.35;;;17.60;53.50;;;;;;5106847;27;45173;-60
2024/01/26 03:48:28;;;;;;;1.98;1.17;;;17.50;53.40;;;;;;5107043;27;45142;-61
2024/01/26 03:50:57;;;;;;;1.98;1.02;;;17.50;53.40;;;;;;5107226;27;45368;-61
2024/01/26 03:53:24;;;;;;;1.02;0.85;;;17.50;53.40;;;;;;5106628;27;45427;-61
2024/01/26 03:55:50;;;;;;;0.90;0.90;;;17.50;53.40;;;;;;5106730;27;45240;-61
2024/01/26 03:58:17;;;;;;;1.15;1.05;;;17.50;53.50;;;;;;5106868;27;45279;-61
2024/01/26 04:00:45;;;;;;;1.10;1.00;;;17.50;53.40;;;;;;5107062;27;45374;-61
2024/01/26 04:03:11;;;;;;;1.60;1.17;;;17.50;53.50;;;;;;5106697;27;46239;-61
2024/01/26 04:05:39;;;;;;;1.02;0.98;;;17.50;53.40;;;;;;5106701;27;45536;-62
2024/01/26 04:08:08;;;;;;;1.15;1.05;;;17.50;53.40;;;;;;5106739;27;45284;-61
2024/01/26 04:10:34;;;;;;;1.25;1.10;;;17.50;53.40;;;;;;5102718;27;45392;-61
2024/01/26 04:13:01;;;;;;;1.08;0.98;;;17.50;53.40;;;;;;5085781;28;46792;-61
2024/01/26 04:15:28;;;;;;;1.42;1.10;;;17.40;53.40;;;;;;5086181;28;45277;-60
2024/01/26 04:17:56;;;;;;;1.35;1.17;;;17.40;53.50;;;;;;5085964;28;45303;-61
2024/01/26 04:20:23;;;;;;;1.67;1.20;;;17.40;53.40;;;;;;5086399;28;45551;-61
2024/01/26 04:22:50;;;;;;;1.23;1.13;;;17.40;53.40;;;;;;5085732;28;45384;-61
2024/01/26 04:25:18;;;;;;;1.40;1.00;;;17.40;53.40;;;;;;5085587;28;45299;-61
2024/01/26 04:27:45;;;;;;;1.25;1.02;;;17.40;53.40;;;;;;5085925;28;45135;-62
2024/01/26 04:30:13;;;;;;;0.90;0.90;;;17.40;53.40;;;;;;5086233;28;45174;-61
2024/01/26 04:32:40;;;;;;;1.70;1.13;;;17.40;53.40;;;;;;5085985;28;45450;-61
2024/01/26 04:35:07;;;;;;;1.33;1.02;;;17.40;53.40;;;;;;5085584;28;45378;-61
2024/01/26 04:37:34;;;;;;;2.13;0.90;;;17.40;53.40;;;;;;5085765;28;45359;-63
2024/01/26 04:40:01;;;;;;;1.30;1.20;;;17.40;53.50;;;;;;5085935;28;45414;-62
2024/01/26 04:42:29;;;;;;;0.82;0.82;;;17.40;53.40;;;;;;5085295;28;45562;-66
2024/01/26 04:44:56;;;;;;;1.27;0.98;;;17.30;53.40;;;;;;5085430;28;45448;-62
2024/01/26 04:47:23;;;;;;;2.55;0.90;;;17.30;53.40;;;;;;5085646;28;45312;-62
2024/01/26 04:49:50;;;;;;;2.30;1.00;;;17.30;53.40;;;;;;5085683;28;45561;-61
2024/01/26 04:52:17;;;;;;;0.70;0.70;;;17.30;53.40;;;;;;5085413;28;46291;-61
2024/01/26 04:54:46;;;;;;;1.10;1.00;;;17.30;53.40;;;;;;5085406;28;45207;-61
2024/01/26 04:57:13;;;;;;;1.08;1.00;;;17.30;53.30;;;;;;5085773;28;45297;-61
2024/01/26 04:59:40;;;;;;;0.95;0.90;;;17.30;53.40;;;;;;5085724;28;45234;-61
2024/01/26 05:02:07;;;;;;;1.02;0.93;;;17.30;53.40;;;;;;5085597;28;45389;-61
2024/01/26 05:04:34;;;;;;;1.08;0.90;;;17.30;53.40;;;;;;5085382;28;45155;-61
2024/01/26 05:07:01;;;;;;;0.80;0.80;;;17.30;53.40;;;;;;5085331;28;45324;-61
2024/01/26 05:09:28;;;;;;;1.08;1.00;;;17.30;53.40;;;;;;5085893;28;45441;-61
2024/01/26 05:11:55;;;;;;;0.70;0.70;;;17.30;53.30;;;;;;5085098;28;45596;-61
2024/01/26 05:14:22;;;;;;;1.48;0.90;;;17.30;53.40;;;;;;5085230;28;45228;-61
2024/01/26 05:16:50;;;;;;;1.13;0.82;;;17.30;53.40;;;;;;5085275;28;45278;-61
2024/01/26 05:19:17;;;;;;;1.30;0.80;;;17.30;53.30;;;;;;5085817;28;45320;-61
2024/01/26 05:21:44;;;;;;;1.52;0.80;;;17.20;53.20;;;;;;5085175;28;45362;-61
2024/01/26 05:24:11;;;;;;;1.58;0.80;;;17.20;53.30;;;;;;5085290;28;45269;-61
2024/01/26 05:26:38;;;;;;;2.25;1.45;;;17.20;53.30;;;;;;5085228;28;45186;-61
2024/01/26 05:29:06;;;;;;;1.67;1.00;;;17.20;53.30;;;;;;5085297;28;45261;-61
2024/01/26 05:31:34;;;;;;;1.98;0.90;;;17.20;53.40;;;;;;5085152;28;47895;-61
2024/01/26 05:34:02;;;;;;;0.80;0.80;;;17.20;53.30;;;;;;5084964;28;45307;-61
2024/01/26 05:36:29;;;;;;;1.23;0.85;;;17.20;53.40;;;;;;5086040;27;45228;-61
2024/01/26 05:38:56;;;;;;;0.90;0.90;;;17.20;53.30;;;;;;5088796;28;45556;-61
2024/01/26 05:41:22;;;;;;;1.27;1.00;;;17.20;53.40;;;;;;5088243;28;45629;-61
2024/01/26 05:43:50;;;;;;;0.70;0.60;;;17.20;53.20;;;;;;5088426;28;45441;-61
2024/01/26 05:46:17;;;;;;;1.13;0.90;;;17.20;53.30;;;;;;5088468;28;45122;-61
2024/01/26 05:48:44;;;;;;;0.80;0.80;;;17.20;53.20;;;;;;5088405;28;45299;-61
2024/01/26 05:51:12;;;;;;;0.88;0.88;;;17.20;53.30;;;;;;5088059;28;45373;-61
2024/01/26 05:53:39;;;;;;;0.93;0.93;;;17.20;53.30;;;;;;5088126;28;45360;-61
2024/01/26 05:56:06;;;;;;;0.88;0.88;;;17.10;53.20;;;;;;5088166;28;45244;-61
2024/01/26 05:58:33;;;;;;;1.10;0.70;;;17.10;53.30;;;;;;5088356;28;45368;-61
2024/01/26 06:01:00;;;;;;;1.15;0.90;;;17.20;53.30;;;;;;5088370;28;46285;-61
2024/01/26 06:03:27;;;;;;;1.52;1.00;;;17.10;53.20;;;;;;5088085;28;45316;-61
2024/01/26 06:05:54;;;;;;;1.05;0.80;;;17.10;53.20;;;;;;5088145;28;45292;-61
2024/01/26 06:08:22;;;;;;;0.90;0.70;;;17.10;53.30;;;;;;5088545;28;45465;-61
2024/01/26 06:10:49;;;;;;;1.25;0.80;;;17.10;53.30;;;;;;5087622;28;45311;-62
2024/01/26 06:13:16;;;;;;;1.45;0.80;;;17.20;53.20;;;;;;5087674;28;45363;-62
2024/01/26 06:15:42;;;;;;;0.88;0.80;;;17.20;53.10;;;;;;5087913;28;45268;-62
2024/01/26 06:18:09;;;;;;;0.93;0.93;;;17.30;53.00;;;;;;5088009;28;45318;-62
2024/01/26 06:20:36;;;;;;;0.93;0.90;;;17.40;52.80;;;;;;5087604;28;45464;-61
2024/01/26 06:23:03;;;;;;;1.00;1.00;;;17.40;52.70;;;;;;5087609;28;45284;-61
2024/01/26 06:25:32;;;;;;;0.85;0.85;;;17.50;52.40;;;;;;5087738;28;45357;-61
2024/01/26 06:27:59;;;;;;;0.80;0.80;;;17.70;52.20;;;;;;5087958;28;45285;-62
2024/01/26 06:30:26;;;;;;;1.00;0.90;;;17.70;52.00;;;;;;5087546;28;46387;-62
2024/01/26 06:32:53;;;;;;;1.42;0.77;;;17.80;51.80;;;;;;5087652;28;45229;-63
2024/01/26 06:35:20;;;;;;;1.08;0.93;;;17.90;51.60;;;;;;5087476;28;45155;-61
2024/01/26 06:37:47;;;;;;;0.70;0.70;;;18.00;51.40;;;;;;5087718;28;45269;-62
2024/01/26 06:40:14;;;;;;;0.73;0.73;;;18.10;51.30;;;;;;5087215;28;45296;-62
2024/01/26 06:42:43;;;;;;;0.77;0.77;;;18.10;51.10;;;;;;5089757;27;45194;-62
2024/01/26 06:45:10;;;;;;;1.45;1.25;;;18.20;51.00;;;;;;5107996;27;45255;-62
2024/01/26 06:47:37;;;;;;;1.58;1.00;;;18.30;50.90;;;;;;5097225;27;45391;-61
2024/01/26 06:50:04;;;;;;;0.90;0.68;;;18.30;50.70;;;;;;5086715;28;46332;-60
2024/01/26 06:52:31;;;;;;;0.70;0.70;;;18.40;50.60;;;;;;5085729;28;45269;-59
2024/01/26 06:54:58;;;;;;;0.90;0.90;;;18.40;50.50;;;;;;5087319;28;45157;-60
2024/01/26 06:57:25;;;;;;;1.67;0.82;;;18.50;50.40;;;;;;5087548;28;45455;-60
2024/01/26 06:59:54;;;;;;;0.70;0.70;;;18.60;50.30;;;;;;5086971;28;45332;-60
2024/01/26 07:02:21;;;;;;;0.77;0.70;;;18.60;50.20;;;;;;5087053;28;45206;-60
2024/01/26 07:04:48;;;;;;;1.38;0.80;;;18.60;50.10;;;;;;5087150;28;45204;-60
2024/01/26 07:07:15;;;;;;;0.77;0.77;;;18.60;50.70;;;;;;5087468;28;45166;-60
2024/01/26 07:09:42;;;;;;;2.65;0.65;;;18.70;50.00;;;;;;5086801;28;46396;-60
2024/01/26 07:12:09;;;;;;;0.70;0.70;;;18.70;49.90;;;;;;5086908;28;45360;-60
2024/01/26 07:14:36;;;;;;;1.02;0.68;;;18.80;49.90;;;;;;5087232;28;45363;-60
2024/01/26 07:17:04;;;;;;;0.60;0.60;;;18.80;49.80;;;;;;5087159;28;45299;-60
2024/01/26 07:19:31;;;;;;;1.58;0.82;;;18.80;49.80;;;;;;5086997;28;46103;-62
2024/01/26 07:21:58;;;;;;;3.15;0.80;;;18.90;49.80;;;;;;5086537;28;45321;-62
2024/01/26 07:24:24;;;;;;;1.80;0.82;;;18.90;49.80;;;;;;5086657;28;45311;-62
2024/01/26 07:26:51;;;;;;;1.33;0.60;;;18.90;49.80;;;;;;5086870;28;45466;-62
2024/01/26 07:29:18;;;;;;;1.25;0.77;;;18.90;49.70;;;;;;5086275;28;45203;-62
2024/01/26 07:31:46;;;;;;;0.68;0.68;;;18.90;49.70;;;;;;5086482;28;45272;-62
2024/01/26 07:34:14;;;;;;;1.63;0.60;;;19.00;49.70;;;;;;5086733;28;45307;-62
2024/01/26 07:36:41;;;;;;;0.93;0.50;;;19.00;49.60;;;;;;5086735;28;45408;-62
2024/01/26 07:39:09;;;;;;;0.90;0.68;;;19.00;49.60;;;;;;5086410;28;45460;-62
2024/01/26 07:41:36;;;;;;;0.85;0.80;;;19.00;49.50;;;;;;5086184;28;45208;-62
2024/01/26 07:44:03;;;;;;;0.77;0.65;;;19.00;49.40;;;;;;5086560;28;45319;-62
2024/01/26 07:46:30;;;;;;;0.60;0.60;;;19.10;49.40;;;;;;5086638;28;45367;-62
2024/01/26 07:48:57;;;;;;;0.60;0.60;;;19.10;49.40;;;;;;5086281;28;45201;-62
2024/01/26 07:51:26;;;;;;;1.17;0.52;;;19.10;49.30;;;;;;5086285;28;45217;-62
2024/01/26 07:53:53;;;;;;;0.80;0.80;;;19.10;49.30;;;;;;5086738;28;45282;-61
2024/01/26 07:56:19;;;;;;;0.93;0.70;;;19.10;49.20;;;;;;5086184;28;45495;-61
2024/01/26 07:58:46;;;;;;;0.50;0.50;;;19.10;49.80;;;;;;5085805;28;45300;-61
2024/01/26 08:01:14;;;;;;;0.50;0.50;;;19.20;49.10;;;;;;5086176;28;45307;-61
2024/01/26 08:03:40;;;;;;;1.77;0.80;;;19.20;49.10;;;;;;5086199;28;45222;-61
2024/01/26 08:06:08;;;;;;;0.82;0.60;;;19.20;49.10;;;;;;5085636;28;45307;-60
2024/01/26 08:08:36;;;;;;;1.10;0.77;;;19.20;49.00;;;;;;5085556;28;46879;-60
2024/01/26 08:11:03;;;;;;;0.70;0.70;;;19.30;49.00;;;;;;5085402;28;45364;-61
2024/01/26 08:13:31;;;;;;;0.75;0.73;;;19.30;49.00;;;;;;5085643;28;45323;-61
2024/01/26 08:15:58;;;;;;;0.75;0.70;;;19.30;48.90;;;;;;5085123;28;45410;-61
2024/01/26 08:18:24;;;;;;;2.00;0.60;;;19.30;48.90;;;;;;5085060;28;46463;-61
2024/01/26 08:20:50;;;;;;;0.80;0.80;;;19.30;49.00;;;;;;5085250;28;45479;-61
2024/01/26 08:23:18;;;;;;;1.85;0.88;;;19.30;49.00;;;;;;5085503;28;45284;-61
2024/01/26 08:25:46;;;;;;;2.90;0.90;;;19.30;48.90;;;;;;5085422;28;45311;-61
2024/01/26 08:28:13;;;;;;;0.55;0.55;;;19.40;48.90;;;;;;5085128;28;45511;-61
2024/01/26 08:30:41;;;;;;;1.75;0.88;;;19.40;48.90;;;;;;5084695;28;45493;-61
2024/01/26 08:33:09;;;;;;;0.50;0.47;;;19.40;48.90;;;;;;5085741;28;45276;-61
2024/01/26 08:35:35;;;;;;;1.10;0.60;;;19.40;48.80;;;;;;5085686;28;45112;-61
2024/01/26 08:38:03;;;;;;;0.60;0.60;;;19.50;48.80;;;;;;5085073;28;45315;-61
2024/01/26 08:40:30;;;;;;;0.77;0.73;;;19.50;48.80;;;;;;5084422;28;45334;-62
2024/01/26 08:42:58;;;;;;;2.25;0.75;;;19.50;48.80;;;;;;5082035;28;45418;-61
2024/01/26 08:45:25;;;;;;;2.55;0.88;;;19.50;48.80;;;;;;5085449;28;45229;-61
2024/01/26 08:47:52;;;;;;;1.92;0.70;;;19.50;48.70;;;;;;5084889;28;46453;-61
2024/01/26 08:50:19;;;;;;;1.30;0.50;;;19.60;48.70;;;;;;5084899;28;45325;-61
2024/01/26 08:52:46;;;;;;;0.80;0.80;;;19.60;48.80;;;;;;5081512;28;45461;-61
2024/01/26 08:55:13;;;;;;;3.25;0.88;;;19.50;48.70;;;;;;5085003;28;45321;-61
2024/01/26 08:57:40;;;;;;;2.47;0.77;;;19.50;48.70;;;;;;5084373;28;46361;-63
2024/01/26 09:00:12;;;;;;;1.45;0.40;;;19.60;48.70;;;;;;5084643;28;45399;-61
2024/01/26 09:02:39;;;;;;;4.10;0.85;;;19.60;48.60;;;;;;5083946;28;45218;-61
2024/01/26 09:05:07;;;;;;;0.75;0.70;;;19.60;48.50;;;;;;5084916;28;45326;-61
2024/01/26 09:07:34;;;;;;;0.88;0.80;;;19.60;48.50;;;;;;5085019;28;45407;-61
2024/01/26 09:10:01;;;;;;;2.00;0.60;;;19.60;48.50;;;;;;5085175;28;45342;-61
2024/01/26 09:12:28;;;;;;;0.70;0.70;;;19.60;48.50;;;;;;5087160;28;45453;-60
2024/01/26 09:14:55;;;;;;;0.85;0.70;;;19.70;48.60;;;;;;5088119;28;45403;-60
2024/01/26 09:17:23;;;;;;;0.68;0.65;;;19.70;48.50;;;;;;5087188;27;46398;-62
2024/01/26 09:19:50;;;;;;;2.30;0.60;;;19.70;48.40;;;;;;5090595;27;45324;-62
2024/01/26 09:22:17;;;;;;;1.67;0.75;;;19.70;48.40;;;;;;5086950;27;45442;-62
2024/01/26 09:24:44;;;;;;;1.60;0.70;;;19.70;48.50;;;;;;5087606;28;45569;-62
2024/01/26 09:27:10;;;;;;;3.30;0.88;;;19.70;48.60;;;;;;5096374;27;45390;-63
2024/01/26 09:29:37;;;;;;;1.40;0.80;;;19.80;48.60;;;;;;5088016;28;45367;-61
2024/01/26 09:32:05;;;;;;;8.10;1.00;;;19.80;48.70;;;;;;5086912;28;45372;-64
2024/01/26 09:34:33;;;;;;;2.10;1.13;;;19.80;48.70;;;;;;5082350;27;45521;-62
2024/01/26 09:37:00;;;;;;;1.60;1.40;;;19.80;48.80;;;;;;5096022;27;45456;-62
2024/01/26 09:39:27;;;;;;;2.25;1.35;;;19.90;48.90;;;;;;5087649;28;45265;-62
2024/01/26 09:41:55;;;;;;;3.20;1.20;;;19.90;48.80;;;;;;5095584;27;45529;-62
2024/01/26 09:44:22;;;;;;;4.38;1.33;;;19.90;48.90;;;;;;5100751;27;45276;-62
2024/01/26 09:46:48;;;;;;;2.85;0.90;;;19.90;48.80;;;;;;5093818;27;46356;-62
2024/01/26 09:49:15;;;;;;;5.85;1.50;;;19.90;48.80;;;;;;5087406;28;45212;-62
2024/01/26 09:51:44;;;;;;;2.33;1.25;;;19.90;48.80;;;;;;5095077;27;45415;-61
2024/01/26 09:54:10;;;;;;;2.75;1.00;;;20.00;48.80;;;;;;5091271;27;45364;-60
2024/01/26 09:56:38;;;;;;;2.75;1.42;;;20.00;48.80;;;;;;5085765;27;45450;-61
2024/01/26 09:59:05;;;;;;;3.88;1.33;;;20.00;48.80;;;;;;5089292;27;45359;-60
2024/01/26 10:01:32;;;;;;;3.60;1.38;;;20.00;48.80;;;;;;5089100;27;45434;-61
2024/01/26 10:03:59;;;;;;;4.47;1.38;;;20.00;48.90;;;;;;5091197;27;45475;-60
2024/01/26 10:06:25;;;;;;;6.93;1.30;;;20.00;48.80;;;;;;5086852;28;45484;-61
2024/01/26 10:08:53;;;;;;;2.80;1.17;;;20.00;48.80;;;;;;5106273;27;45418;-61
2024/01/26 10:11:20;;;;;;;2.58;1.30;;;20.10;48.80;;;;;;5093458;27;45390;-61
2024/01/26 10:13:47;;;;;;;3.33;1.48;;;20.10;48.80;;;;;;5090541;27;45490;-61
2024/01/26 10:16:14;;;;;;;2.05;1.25;;;20.10;48.80;;;;;;5086021;28;46705;-62
2024/01/26 10:18:43;;;;;;;2.78;1.30;;;20.00;48.80;;;;;;5087097;28;45407;-61
2024/01/26 10:21:10;;;;;;;3.25;1.05;;;20.00;48.80;;;;;;5091959;27;45336;-61
2024/01/26 10:23:37;;;;;;;4.50;1.73;;;20.10;48.90;;;;;;5096881;27;45475;-61
2024/01/26 10:26:05;;;;;;;1.80;1.20;;;20.00;49.00;;;;;;5097646;27;45471;-61
2024/01/26 10:28:32;;;;;;;6.40;1.27;;;20.00;49.00;;;;;;5087740;27;45367;-61
2024/01/26 10:30:59;;;;;;;1.73;0.88;;;20.00;49.10;;;;;;5089447;27;45318;-61
2024/01/26 10:33:26;;;;;;;1.98;1.25;;;20.00;49.10;;;;;;5105446;27;45420;-62
2024/01/26 10:35:56;;;;;;;2.88;1.33;;;20.00;49.10;;;;;;5107359;27;46482;-61
2024/01/26 10:38:23;;;;;;;1.65;1.10;;;20.00;49.20;;;;;;5107413;27;45302;-61
2024/01/26 10:40:50;;;;;;;2.53;1.33;;;19.90;49.20;;;;;;5098453;27;45257;-61
2024/01/26 10:43:18;;;;;;;0.98;0.90;;;19.90;49.30;;;;;;5100966;27;45462;-61
2024/01/26 10:45:45;;;;;;;3.60;1.30;;;19.90;49.40;;;;;;5107290;27;46414;-62
2024/01/26 10:48:12;;;;;;;2.10;1.15;;;19.90;49.50;;;;;;5107503;27;45502;-61
2024/01/26 10:50:39;;;;;;;2.38;1.30;;;19.90;49.50;;;;;;5106236;27;45401;-61
2024/01/26 10:53:06;;;;;;;1.98;1.17;;;19.80;49.50;;;;;;5107607;27;45336;-61
2024/01/26 10:55:33;;;;;;;2.55;1.23;;;19.80;49.60;;;;;;5107252;27;45243;-62
2024/01/26 10:58:05;;;;;;;2.63;1.20;;;19.80;49.60;;;;;;5107116;27;45340;-61
2024/01/26 11:00:33;;;;;;;2.10;1.17;;;19.80;49.70;;;;;;5106342;27;45176;-62
2024/01/26 11:03:02;;;;;;;2.55;1.38;;;19.80;49.80;;;;;;5107573;27;45375;-61
2024/01/26 11:05:29;;;;;;;3.67;1.50;;;19.70;50.40;;;;;;5107079;27;46418;-61
2024/01/26 11:07:55;;;;;;;3.15;1.20;;;19.70;49.90;;;;;;5106934;27;45252;-60
2024/01/26 11:10:23;;;;;;;3.25;1.10;;;19.70;49.90;;;;;;5106329;27;45264;-61
2024/01/26 11:13:00;;;;;;;1.83;1.20;;;19.70;49.90;;;;;;5107416;27;45453;-61
2024/01/26 11:15:27;;;;;;;4.72;1.15;;;19.60;50.10;;;;;;5106968;27;46686;-61
2024/01/26 11:17:56;;;;;;;5.57;1.30;;;19.60;50.20;;;;;;5093304;27;45305;-61
2024/01/26 11:20:25;;;;;;;2.45;1.23;;;19.60;50.20;;;;;;5086660;28;45250;-61
2024/01/26 11:23:02;;;;;;;1.35;0.95;;;19.60;50.20;;;;;;5086673;28;45350;-62
2024/01/26 11:25:35;;;;;;;1.77;1.13;;;19.60;50.30;;;;;;5086169;28;45336;-61
2024/01/26 11:28:02;;;;;;;1.90;1.27;;;19.60;50.30;;;;;;5086456;28;45326;-61
2024/01/26 11:30:29;;;;;;;2.75;0.90;;;19.50;50.30;;;;;;5086393;28;45402;-62
2024/01/26 11:32:58;;;;;;;3.42;1.30;;;19.50;50.30;;;;;;5086569;28;45408;-61
2024/01/26 11:35:25;;;;;;;1.73;1.00;;;19.50;50.40;;;;;;5085244;27;46306;-60
2024/01/26 11:37:52;;;;;;;4.13;1.17;;;19.50;50.50;;;;;;5085967;28;45375;-60
2024/01/26 11:40:20;;;;;;;3.72;1.20;;;19.50;50.50;;;;;;5086180;28;45358;-61
2024/01/26 11:42:47;;;;;;;2.05;1.20;;;19.50;50.50;;;;;;5086508;28;45233;-60
2024/01/26 11:45:18;;;;;;;2.28;1.20;;;19.50;50.40;;;;;;5086061;28;45668;-59
2024/01/26 11:47:45;;;;;;;1.05;0.95;;;19.50;50.30;;;;;;5086247;28;45283;-61
2024/01/26 11:50:13;;;;;;;4.93;1.48;;;19.60;50.30;;;;;;5086203;28;45340;-60
2024/01/26 11:52:40;;;;;;;5.78;1.33;;;19.60;50.20;;;;;;5086250;28;45377;-60
2024/01/26 11:55:08;;;;;;;2.25;1.10;;;19.80;50.20;;;;;;5086029;28;46473;-60
2024/01/26 11:57:35;;;;;;;1.35;1.00;;;19.80;49.90;;;;;;5085885;28;45310;-60
2024/01/26 12:00:04;;;;;;;2.70;0.98;;;19.80;49.80;;;;;;5086012;28;45277;-61
2024/01/26 12:02:31;;;;;;;1.45;0.88;;;19.90;49.70;;;;;;5086148;28;45490;-61
2024/01/26 12:04:58;;;;;;;2.40;1.20;;;19.90;49.60;;;;;;5085738;28;46400;-62
2024/01/26 12:07:26;;;;;;;1.00;0.82;;;19.90;49.50;;;;;;5085483;28;45250;-61
2024/01/26 12:09:53;;;;;;;1.30;0.93;;;20.00;49.40;;;;;;5085094;28;45414;-60
2024/01/26 12:12:20;;;;;;;1.30;1.02;;;19.90;49.40;;;;;;5085246;28;45252;-61
2024/01/26 12:14:46;;;;;;;0.77;0.77;;;20.00;49.40;;;;;;5084449;28;45509;-60
2024/01/26 12:17:13;;;;;;;2.55;1.10;;;20.00;49.40;;;;;;5084097;28;45311;-60
2024/01/26 12:19:40;;;;;;;1.52;1.20;;;20.00;49.30;;;;;;5085116;28;45328;-60
2024/01/26 12:22:07;;;;;;;1.23;0.95;;;20.00;49.20;;;;;;5085388;28;45262;-60
2024/01/26 12:24:35;;;;;;;1.17;0.93;;;20.00;49.20;;;;;;5085282;28;46670;-60
2024/01/26 12:27:03;;;;;;;1.08;0.98;;;20.00;49.70;;;;;;5085120;28;45459;-60
2024/01/26 12:29:30;;;;;;;2.38;1.15;;;20.10;49.10;;;;;;5084559;28;45353;-59
2024/01/26 12:32:03;;;;;;;2.03;1.00;;;20.10;49.10;;;;;;5084122;28;45382;-61
2024/01/26 12:34:30;;;;;;;1.27;1.15;;;20.10;49.20;;;;;;5083368;27;47306;-60
2024/01/26 12:36:59;;;;;;;1.73;1.02;;;20.10;49.20;;;;;;5088409;27;45422;-60
2024/01/26 12:39:26;;;;;;;1.92;0.80;;;20.10;49.10;;;;;;5092914;27;45344;-60
2024/01/26 12:41:54;;;;;;;1.92;1.10;;;20.10;49.10;;;;;;5084785;27;45550;-60
2024/01/26 12:44:27;;;;;;;0.90;0.90;;;20.10;49.00;;;;;;5072521;27;45470;-61
2024/01/26 12:46:54;;;;;;;2.08;0.90;;;20.10;49.00;;;;;;5085148;27;45481;-60